Klondyke, Arizona
Current Conditions -  °F | °C
As of 1:51 PM on Saturday 22 Nov 2014 (Local Time) from KSAD Reporting Station
Clear Clear  
Wind Chill: 65°   Ceiling: Unl
Heat Index: 65°   Visibility: 10mi
Dew Point: 21°   Wind: 7mph
Humidity: 19%   Direction: 250°WSW
Pressure: 30"   Gusts: NA
Location:  32.5598°N, 110.08°W
Report Text: KSAD 222051Z AUTO 25006KT 10SM CLR 18/M06 A3000 RMK AO2 SLP141 T01831061 58030
Loading
Personal Weather Stations






























Interactive Weather Map New forecast layout! Learn more

10-Day Weather Forecast

Advertisements
Track Severe Weather on mobile